sensor_id;sensor_type;location;lat;lon;timestamp;temperature;humidity
19941;DHT22;10132;50.864;5.176;2022-08-27T00:01:13;16.10;99.90
19941;DHT22;10132;50.864;5.176;2022-08-27T00:03:17;16.10;99.90
19941;DHT22;10132;50.864;5.176;2022-08-27T00:05:19;16.30;99.90
19941;DHT22;10132;50.864;5.176;2022-08-27T00:07:21;16.30;99.90
19941;DHT22;10132;50.864;5.176;2022-08-27T00:09:23;16.30;99.90
19941;DHT22;10132;50.864;5.176;2022-08-27T00:11:25;16.40;99.90
19941;DHT22;10132;50.864;5.176;2022-08-27T00:13:28;16.50;99.90
19941;DHT22;10132;50.864;5.176;2022-08-27T00:15:31;16.50;99.90
19941;DHT22;10132;50.864;5.176;2022-08-27T00:17:34;16.60;99.90
19941;DHT22;10132;50.864;5.176;2022-08-27T00:19:36;16.70;99.90
19941;DHT22;10132;50.864;5.176;2022-08-27T00:21:38;16.80;99.90
19941;DHT22;10132;50.864;5.176;2022-08-27T00:23:40;16.80;99.90
19941;DHT22;10132;50.864;5.176;2022-08-27T00:25:42;16.80;99.90
19941;DHT22;10132;50.864;5.176;2022-08-27T00:27:44;16.80;99.90
19941;DHT22;10132;50.864;5.176;2022-08-27T00:29:47;16.80;99.90
19941;DHT22;10132;50.864;5.176;2022-08-27T00:31:50;16.70;99.90
19941;DHT22;10132;50.864;5.176;2022-08-27T00:33:52;16.60;99.90
19941;DHT22;10132;50.864;5.176;2022-08-27T00:35:55;16.50;99.90
19941;DHT22;10132;50.864;5.176;2022-08-27T00:37:57;16.40;99.90
19941;DHT22;10132;50.864;5.176;2022-08-27T00:39:59;16.40;99.90
19941;DHT22;10132;50.864;5.176;2022-08-27T00:42:00;16.40;99.90
19941;DHT22;10132;50.864;5.176;2022-08-27T00:44:03;16.30;99.90
19941;DHT22;10132;50.864;5.176;2022-08-27T00:46:10;16.30;99.90
19941;DHT22;10132;50.864;5.176;2022-08-27T00:48:16;16.20;99.90
19941;DHT22;10132;50.864;5.176;2022-08-27T00:50:27;16.30;99.90
19941;DHT22;10132;50.864;5.176;2022-08-27T00:52:31;16.10;99.90
19941;DHT22;10132;50.864;5.176;2022-08-27T00:54:34;16.30;99.90
19941;DHT22;10132;50.864;5.176;2022-08-27T00:56:40;16.40;99.90
19941;DHT22;10132;50.864;5.176;2022-08-27T00:58:46;16.40;99.90
19941;DHT22;10132;50.864;5.176;2022-08-27T01:00:49;16.30;99.90
19941;DHT22;10132;50.864;5.176;2022-08-27T01:02:54;16.20;99.90
19941;DHT22;10132;50.864;5.176;2022-08-27T01:04:59;16.30;99.90
19941;DHT22;10132;50.864;5.176;2022-08-27T01:07:02;16.30;99.90
19941;DHT22;10132;50.864;5.176;2022-08-27T01:09:08;16.40;99.90
19941;DHT22;10132;50.864;5.176;2022-08-27T01:11:11;16.40;99.90
19941;DHT22;10132;50.864;5.176;2022-08-27T01:13:16;16.40;99.90
19941;DHT22;10132;50.864;5.176;2022-08-27T01:15:20;16.40;99.90
19941;DHT22;10132;50.864;5.176;2022-08-27T01:17:23;16.50;99.90
19941;DHT22;10132;50.864;5.176;2022-08-27T01:19:28;16.50;99.90
19941;DHT22;10132;50.864;5.176;2022-08-27T01:21:37;16.50;99.90
19941;DHT22;10132;50.864;5.176;2022-08-27T01:23:47;16.40;99.90
19941;DHT22;10132;50.864;5.176;2022-08-27T01:25:53;16.40;99.90
19941;DHT22;10132;50.864;5.176;2022-08-27T01:27:55;16.40;99.90
19941;DHT22;10132;50.864;5.176;2022-08-27T01:29:58;16.50;99.90
19941;DHT22;10132;50.864;5.176;2022-08-27T01:32:06;16.60;99.90
19941;DHT22;10132;50.864;5.176;2022-08-27T01:34:09;16.60;99.90
19941;DHT22;10132;50.864;5.176;2022-08-27T01:36:11;16.60;99.90
19941;DHT22;10132;50.864;5.176;2022-08-27T01:38:15;16.60;99.90
19941;DHT22;10132;50.864;5.176;2022-08-27T01:40:18;16.60;99.90
19941;DHT22;10132;50.864;5.176;2022-08-27T01:42:23;16.50;99.90
19941;DHT22;10132;50.864;5.176;2022-08-27T01:44:26;16.60;99.90
19941;DHT22;10132;50.864;5.176;2022-08-27T01:46:28;16.50;99.90
19941;DHT22;10132;50.864;5.176;2022-08-27T01:48:30;16.50;99.90
19941;DHT22;10132;50.864;5.176;2022-08-27T01:50:34;16.50;99.90
19941;DHT22;10132;50.864;5.176;2022-08-27T01:52:36;16.50;99.90
19941;DHT22;10132;50.864;5.176;2022-08-27T01:54:38;16.50;99.90
19941;DHT22;10132;50.864;5.176;2022-08-27T01:56:41;16.50;99.90
19941;DHT22;10132;50.864;5.176;2022-08-27T01:58:44;16.50;99.90
19941;DHT22;10132;50.864;5.176;2022-08-27T02:00:50;16.60;99.90
19941;DHT22;10132;50.864;5.176;2022-08-27T02:02:54;16.70;99.90
19941;DHT22;10132;50.864;5.176;2022-08-27T02:04:56;16.60;99.90
19941;DHT22;10132;50.864;5.176;2022-08-27T02:06:58;16.60;99.90
19941;DHT22;10132;50.864;5.176;2022-08-27T02:09:01;16.60;99.90
19941;DHT22;10132;50.864;5.176;2022-08-27T02:11:03;16.60;99.90
19941;DHT22;10132;50.864;5.176;2022-08-27T02:13:06;16.70;99.90
19941;DHT22;10132;50.864;5.176;2022-08-27T02:15:11;16.70;99.90
19941;DHT22;10132;50.864;5.176;2022-08-27T02:17:13;16.70;99.90
19941;DHT22;10132;50.864;5.176;2022-08-27T02:19:15;16.70;99.90
19941;DHT22;10132;50.864;5.176;2022-08-27T02:21:17;16.70;99.90
19941;DHT22;10132;50.864;5.176;2022-08-27T02:23:19;16.70;99.90
19941;DHT22;10132;50.864;5.176;2022-08-27T02:25:21;16.70;99.90
19941;DHT22;10132;50.864;5.176;2022-08-27T02:27:23;16.70;99.90
19941;DHT22;10132;50.864;5.176;2022-08-27T02:29:25;16.70;99.90
19941;DHT22;10132;50.864;5.176;2022-08-27T02:31:28;16.70;99.90
19941;DHT22;10132;50.864;5.176;2022-08-27T02:33:31;16.70;99.90
19941;DHT22;10132;50.864;5.176;2022-08-27T02:35:35;16.70;99.90
19941;DHT22;10132;50.864;5.176;2022-08-27T02:37:38;16.70;99.90
19941;DHT22;10132;50.864;5.176;2022-08-27T02:39:41;16.70;99.90
19941;DHT22;10132;50.864;5.176;2022-08-27T02:41:43;16.60;99.90
19941;DHT22;10132;50.864;5.176;2022-08-27T02:43:45;16.60;99.90
19941;DHT22;10132;50.864;5.176;2022-08-27T02:45:47;16.60;99.90
19941;DHT22;10132;50.864;5.176;2022-08-27T02:47:53;16.60;99.90
19941;DHT22;10132;50.864;5.176;2022-08-27T02:49:55;16.70;99.90
19941;DHT22;10132;50.864;5.176;2022-08-27T02:51:57;16.70;99.90
19941;DHT22;10132;50.864;5.176;2022-08-27T02:53:59;16.80;99.90
19941;DHT22;10132;50.864;5.176;2022-08-27T02:56:02;16.70;99.90
19941;DHT22;10132;50.864;5.176;2022-08-27T02:58:04;16.70;99.90
19941;DHT22;10132;50.864;5.176;2022-08-27T03:00:08;16.70;99.90
19941;DHT22;10132;50.864;5.176;2022-08-27T03:02:11;16.70;99.90
19941;DHT22;10132;50.864;5.176;2022-08-27T03:04:15;16.70;99.90
19941;DHT22;10132;50.864;5.176;2022-08-27T03:06:19;16.70;99.90
19941;DHT22;10132;50.864;5.176;2022-08-27T03:08:21;16.60;99.90
19941;DHT22;10132;50.864;5.176;2022-08-27T03:10:24;16.60;99.90
19941;DHT22;10132;50.864;5.176;2022-08-27T03:12:26;16.50;99.90
19941;DHT22;10132;50.864;5.176;2022-08-27T03:14:28;16.50;99.90
19941;DHT22;10132;50.864;5.176;2022-08-27T03:16:32;16.40;99.90
19941;DHT22;10132;50.864;5.176;2022-08-27T03:18:34;16.50;99.90
19941;DHT22;10132;50.864;5.176;2022-08-27T03:20:38;16.40;99.90
19941;DHT22;10132;50.864;5.176;2022-08-27T03:22:41;16.40;99.90
19941;DHT22;10132;50.864;5.176;2022-08-27T03:24:43;16.40;99.90
19941;DHT22;10132;50.864;5.176;2022-08-27T03:26:45;16.40;99.90
19941;DHT22;10132;50.864;5.176;2022-08-27T03:28:47;16.30;99.90
19941;DHT22;10132;50.864;5.176;2022-08-27T03:30:51;16.20;99.90
19941;DHT22;10132;50.864;5.176;2022-08-27T03:32:53;16.10;99.90
19941;DHT22;10132;50.864;5.176;2022-08-27T03:34:56;16.10;99.90
19941;DHT22;10132;50.864;5.176;2022-08-27T03:37:00;16.00;99.90
19941;DHT22;10132;50.864;5.176;2022-08-27T03:39:02;16.00;99.90
19941;DHT22;10132;50.864;5.176;2022-08-27T03:41:04;15.90;99.90
19941;DHT22;10132;50.864;5.176;2022-08-27T03:43:07;15.80;99.90
19941;DHT22;10132;50.864;5.176;2022-08-27T03:45:10;15.70;99.90
19941;DHT22;10132;50.864;5.176;2022-08-27T03:47:11;15.70;99.90
19941;DHT22;10132;50.864;5.176;2022-08-27T03:49:16;15.70;99.90
19941;DHT22;10132;50.864;5.176;2022-08-27T03:51:18;15.70;99.90
19941;DHT22;10132;50.864;5.176;2022-08-27T03:53:21;15.70;99.90
19941;DHT22;10132;50.864;5.176;2022-08-27T03:55:23;15.70;99.90
19941;DHT22;10132;50.864;5.176;2022-08-27T03:57:25;15.70;99.90
19941;DHT22;10132;50.864;5.176;2022-08-27T03:59:27;15.70;99.90
19941;DHT22;10132;50.864;5.176;2022-08-27T04:01:29;15.70;99.90
19941;DHT22;10132;50.864;5.176;2022-08-27T04:03:31;15.70;99.90
19941;DHT22;10132;50.864;5.176;2022-08-27T04:05:34;15.60;99.90
19941;DHT22;10132;50.864;5.176;2022-08-27T04:07:37;15.60;99.90
19941;DHT22;10132;50.864;5.176;2022-08-27T04:09:40;15.50;99.90
19941;DHT22;10132;50.864;5.176;2022-08-27T04:11:42;15.50;99.90
19941;DHT22;10132;50.864;5.176;2022-08-27T04:13:44;15.50;99.90
19941;DHT22;10132;50.864;5.176;2022-08-27T04:15:48;15.40;99.90
19941;DHT22;10132;50.864;5.176;2022-08-27T04:17:50;15.40;99.90
19941;DHT22;10132;50.864;5.176;2022-08-27T04:19:55;15.40;99.90
19941;DHT22;10132;50.864;5.176;2022-08-27T04:22:00;15.30;99.90
19941;DHT22;10132;50.864;5.176;2022-08-27T04:24:02;15.30;99.90
19941;DHT22;10132;50.864;5.176;2022-08-27T04:26:07;15.30;99.90
19941;DHT22;10132;50.864;5.176;2022-08-27T04:28:09;15.30;99.90
19941;DHT22;10132;50.864;5.176;2022-08-27T04:30:12;15.20;99.90
19941;DHT22;10132;50.864;5.176;2022-08-27T04:32:15;15.20;99.90
19941;DHT22;10132;50.864;5.176;2022-08-27T04:34:17;15.20;99.90
19941;DHT22;10132;50.864;5.176;2022-08-27T04:36:19;15.20;99.90
19941;DHT22;10132;50.864;5.176;2022-08-27T04:38:21;15.10;99.90
19941;DHT22;10132;50.864;5.176;2022-08-27T04:40:23;15.00;99.90
19941;DHT22;10132;50.864;5.176;2022-08-27T04:42:47;15.00;99.90
19941;DHT22;10132;50.864;5.176;2022-08-27T04:44:50;14.90;99.90
19941;DHT22;10132;50.864;5.176;2022-08-27T04:46:54;14.80;99.90
19941;DHT22;10132;50.864;5.176;2022-08-27T04:48:58;14.70;99.90
19941;DHT22;10132;50.864;5.176;2022-08-27T04:51:00;14.70;99.90
19941;DHT22;10132;50.864;5.176;2022-08-27T04:53:02;14.70;99.90
19941;DHT22;10132;50.864;5.176;2022-08-27T04:55:06;14.80;99.90
19941;DHT22;10132;50.864;5.176;2022-08-27T04:57:08;14.80;99.90
19941;DHT22;10132;50.864;5.176;2022-08-27T04:59:12;14.60;99.90
19941;DHT22;10132;50.864;5.176;2022-08-27T05:01:15;14.50;99.90
19941;DHT22;10132;50.864;5.176;2022-08-27T05:03:19;14.50;99.90
19941;DHT22;10132;50.864;5.176;2022-08-27T05:05:24;14.50;99.90
19941;DHT22;10132;50.864;5.176;2022-08-27T05:07:27;14.50;99.90
19941;DHT22;10132;50.864;5.176;2022-08-27T05:09:30;14.50;99.90
19941;DHT22;10132;50.864;5.176;2022-08-27T05:11:32;14.50;99.90
19941;DHT22;10132;50.864;5.176;2022-08-27T05:13:35;14.50;99.90
19941;DHT22;10132;50.864;5.176;2022-08-27T05:15:39;14.40;99.90
19941;DHT22;10132;50.864;5.176;2022-08-27T05:17:41;14.30;99.90
19941;DHT22;10132;50.864;5.176;2022-08-27T05:19:43;14.30;99.90
19941;DHT22;10132;50.864;5.176;2022-08-27T05:21:47;14.40;99.90
19941;DHT22;10132;50.864;5.176;2022-08-27T05:23:50;14.50;99.90
19941;DHT22;10132;50.864;5.176;2022-08-27T05:25:55;14.50;99.90
19941;DHT22;10132;50.864;5.176;2022-08-27T05:27:57;14.60;99.90
19941;DHT22;10132;50.864;5.176;2022-08-27T05:29:59;14.50;99.90
19941;DHT22;10132;50.864;5.176;2022-08-27T05:32:03;14.50;99.90
19941;DHT22;10132;50.864;5.176;2022-08-27T05:34:05;14.50;99.90
19941;DHT22;10132;50.864;5.176;2022-08-27T05:36:13;14.40;99.90
19941;DHT22;10132;50.864;5.176;2022-08-27T05:38:16;14.60;99.90
19941;DHT22;10132;50.864;5.176;2022-08-27T05:40:18;14.80;99.90
19941;DHT22;10132;50.864;5.176;2022-08-27T05:42:20;15.00;99.90
19941;DHT22;10132;50.864;5.176;2022-08-27T05:44:22;15.20;99.90
19941;DHT22;10132;50.864;5.176;2022-08-27T05:46:25;15.40;99.90
19941;DHT22;10132;50.864;5.176;2022-08-27T05:48:28;15.40;99.90
19941;DHT22;10132;50.864;5.176;2022-08-27T05:50:30;15.60;99.90
19941;DHT22;10132;50.864;5.176;2022-08-27T05:52:32;15.80;99.90
19941;DHT22;10132;50.864;5.176;2022-08-27T05:54:35;15.90;99.90
19941;DHT22;10132;50.864;5.176;2022-08-27T05:56:37;16.10;99.90
19941;DHT22;10132;50.864;5.176;2022-08-27T05:58:39;16.10;99.90
19941;DHT22;10132;50.864;5.176;2022-08-27T06:00:56;16.20;99.90
19941;DHT22;10132;50.864;5.176;2022-08-27T06:03:06;16.30;99.90
19941;DHT22;10132;50.864;5.176;2022-08-27T06:05:12;16.30;99.90
19941;DHT22;10132;50.864;5.176;2022-08-27T06:07:14;16.30;99.90
19941;DHT22;10132;50.864;5.176;2022-08-27T06:09:18;16.30;99.90
19941;DHT22;10132;50.864;5.176;2022-08-27T06:11:21;16.40;99.90
19941;DHT22;10132;50.864;5.176;2022-08-27T06:13:23;16.50;99.90
19941;DHT22;10132;50.864;5.176;2022-08-27T06:15:25;16.40;99.90
19941;DHT22;10132;50.864;5.176;2022-08-27T06:17:28;16.30;99.90
19941;DHT22;10132;50.864;5.176;2022-08-27T06:19:30;16.30;99.90
19941;DHT22;10132;50.864;5.176;2022-08-27T06:21:35;16.30;99.90
19941;DHT22;10132;50.864;5.176;2022-08-27T06:23:37;16.30;99.90
19941;DHT22;10132;50.864;5.176;2022-08-27T06:25:40;16.30;99.90
19941;DHT22;10132;50.864;5.176;2022-08-27T06:27:42;16.40;99.90
19941;DHT22;10132;50.864;5.176;2022-08-27T06:29:44;16.50;99.90
19941;DHT22;10132;50.864;5.176;2022-08-27T06:31:46;16.60;99.90
19941;DHT22;10132;50.864;5.176;2022-08-27T06:33:52;16.50;99.90
19941;DHT22;10132;50.864;5.176;2022-08-27T06:35:54;16.50;99.90
19941;DHT22;10132;50.864;5.176;2022-08-27T06:38:00;16.50;99.90
19941;DHT22;10132;50.864;5.176;2022-08-27T06:40:02;16.60;99.90
19941;DHT22;10132;50.864;5.176;2022-08-27T06:42:05;16.70;99.90
19941;DHT22;10132;50.864;5.176;2022-08-27T06:44:07;16.80;99.90
19941;DHT22;10132;50.864;5.176;2022-08-27T06:46:11;16.80;99.90
19941;DHT22;10132;50.864;5.176;2022-08-27T06:48:13;16.80;99.90
19941;DHT22;10132;50.864;5.176;2022-08-27T06:50:16;16.90;99.90
19941;DHT22;10132;50.864;5.176;2022-08-27T06:52:19;16.80;99.90
19941;DHT22;10132;50.864;5.176;2022-08-27T06:54:22;16.80;99.90
19941;DHT22;10132;50.864;5.176;2022-08-27T06:56:25;16.80;99.90
19941;DHT22;10132;50.864;5.176;2022-08-27T06:58:27;16.80;99.90
19941;DHT22;10132;50.864;5.176;2022-08-27T07:00:29;16.90;99.90
19941;DHT22;10132;50.864;5.176;2022-08-27T07:02:31;16.90;99.90
19941;DHT22;10132;50.864;5.176;2022-08-27T07:04:33;17.00;99.90
19941;DHT22;10132;50.864;5.176;2022-08-27T07:06:35;17.00;99.90
19941;DHT22;10132;50.864;5.176;2022-08-27T07:08:38;17.00;99.90
19941;DHT22;10132;50.864;5.176;2022-08-27T07:10:42;17.00;99.90
19941;DHT22;10132;50.864;5.176;2022-08-27T07:12:43;17.00;99.90
19941;DHT22;10132;50.864;5.176;2022-08-27T07:14:45;17.00;99.90
19941;DHT22;10132;50.864;5.176;2022-08-27T07:16:47;17.00;99.90
19941;DHT22;10132;50.864;5.176;2022-08-27T07:18:52;17.20;99.90
19941;DHT22;10132;50.864;5.176;2022-08-27T07:20:54;17.20;99.90
19941;DHT22;10132;50.864;5.176;2022-08-27T07:22:56;17.20;99.90
19941;DHT22;10132;50.864;5.176;2022-08-27T07:24:58;17.30;99.90
19941;DHT22;10132;50.864;5.176;2022-08-27T07:27:02;17.40;99.90
19941;DHT22;10132;50.864;5.176;2022-08-27T07:29:04;17.50;99.90
19941;DHT22;10132;50.864;5.176;2022-08-27T07:31:08;17.50;99.90
19941;DHT22;10132;50.864;5.176;2022-08-27T07:33:10;17.50;99.90
19941;DHT22;10132;50.864;5.176;2022-08-27T07:35:12;17.60;99.90
19941;DHT22;10132;50.864;5.176;2022-08-27T07:37:15;17.70;99.90
19941;DHT22;10132;50.864;5.176;2022-08-27T07:39:16;17.80;99.90
19941;DHT22;10132;50.864;5.176;2022-08-27T07:41:21;17.90;99.90
19941;DHT22;10132;50.864;5.176;2022-08-27T07:43:24;17.90;99.90
19941;DHT22;10132;50.864;5.176;2022-08-27T07:45:45;18.00;99.90
19941;DHT22;10132;50.864;5.176;2022-08-27T07:47:47;18.00;99.90
19941;DHT22;10132;50.864;5.176;2022-08-27T07:49:49;18.10;99.90
19941;DHT22;10132;50.864;5.176;2022-08-27T07:51:54;18.10;99.90
19941;DHT22;10132;50.864;5.176;2022-08-27T07:53:56;18.10;99.90
19941;DHT22;10132;50.864;5.176;2022-08-27T07:56:02;18.00;99.90
19941;DHT22;10132;50.864;5.176;2022-08-27T07:58:05;18.00;99.90
19941;DHT22;10132;50.864;5.176;2022-08-27T08:00:09;18.10;99.90
19941;DHT22;10132;50.864;5.176;2022-08-27T08:02:12;18.10;99.90
19941;DHT22;10132;50.864;5.176;2022-08-27T08:04:14;18.00;99.90
19941;DHT22;10132;50.864;5.176;2022-08-27T08:06:16;18.00;99.90
19941;DHT22;10132;50.864;5.176;2022-08-27T08:08:19;18.00;99.90
19941;DHT22;10132;50.864;5.176;2022-08-27T08:10:21;18.10;99.90
19941;DHT22;10132;50.864;5.176;2022-08-27T08:12:23;18.10;99.90
19941;DHT22;10132;50.864;5.176;2022-08-27T08:14:25;18.20;99.90
19941;DHT22;10132;50.864;5.176;2022-08-27T08:16:28;18.30;99.90
19941;DHT22;10132;50.864;5.176;2022-08-27T08:18:30;18.20;99.90
19941;DHT22;10132;50.864;5.176;2022-08-27T08:20:32;18.30;99.90
19941;DHT22;10132;50.864;5.176;2022-08-27T08:22:34;18.30;99.90
19941;DHT22;10132;50.864;5.176;2022-08-27T08:24:36;18.50;99.90
19941;DHT22;10132;50.864;5.176;2022-08-27T08:26:38;18.60;99.90
19941;DHT22;10132;50.864;5.176;2022-08-27T08:28:41;18.60;99.90
19941;DHT22;10132;50.864;5.176;2022-08-27T08:30:43;18.70;99.90
19941;DHT22;10132;50.864;5.176;2022-08-27T08:32:47;18.80;99.90
19941;DHT22;10132;50.864;5.176;2022-08-27T08:34:49;19.00;99.90
19941;DHT22;10132;50.864;5.176;2022-08-27T08:36:51;19.10;99.90
19941;DHT22;10132;50.864;5.176;2022-08-27T08:38:53;19.20;99.90
19941;DHT22;10132;50.864;5.176;2022-08-27T08:40:55;19.30;99.90
19941;DHT22;10132;50.864;5.176;2022-08-27T08:42:58;19.50;99.90
19941;DHT22;10132;50.864;5.176;2022-08-27T08:45:03;19.20;99.90
19941;DHT22;10132;50.864;5.176;2022-08-27T08:47:09;19.20;99.90
19941;DHT22;10132;50.864;5.176;2022-08-27T08:49:26;19.10;99.90
19941;DHT22;10132;50.864;5.176;2022-08-27T08:51:35;19.10;99.90
19941;DHT22;10132;50.864;5.176;2022-08-27T08:53:43;19.20;99.90
19941;DHT22;10132;50.864;5.176;2022-08-27T08:55:52;19.30;99.90
19941;DHT22;10132;50.864;5.176;2022-08-27T08:58:05;19.50;99.90
19941;DHT22;10132;50.864;5.176;2022-08-27T09:00:11;19.60;99.90
19941;DHT22;10132;50.864;5.176;2022-08-27T09:02:14;19.70;99.90
19941;DHT22;10132;50.864;5.176;2022-08-27T09:04:17;19.80;99.90
19941;DHT22;10132;50.864;5.176;2022-08-27T09:06:27;19.90;99.90
19941;DHT22;10132;50.864;5.176;2022-08-27T09:08:35;20.00;99.90
19941;DHT22;10132;50.864;5.176;2022-08-27T09:10:41;19.90;99.90
19941;DHT22;10132;50.864;5.176;2022-08-27T09:12:44;20.00;99.90
19941;DHT22;10132;50.864;5.176;2022-08-27T09:14:51;20.00;99.90
19941;DHT22;10132;50.864;5.176;2022-08-27T09:16:54;20.10;99.90
19941;DHT22;10132;50.864;5.176;2022-08-27T09:18:56;20.20;99.90
19941;DHT22;10132;50.864;5.176;2022-08-27T09:21:06;20.30;99.90
19941;DHT22;10132;50.864;5.176;2022-08-27T09:23:17;20.30;99.90
19941;DHT22;10132;50.864;5.176;2022-08-27T09:25:25;20.40;99.90
19941;DHT22;10132;50.864;5.176;2022-08-27T09:27:28;20.70;99.90
19941;DHT22;10132;50.864;5.176;2022-08-27T09:29:30;20.80;99.90
19941;DHT22;10132;50.864;5.176;2022-08-27T09:31:35;20.90;99.90
19941;DHT22;10132;50.864;5.176;2022-08-27T09:33:40;20.50;99.90
19941;DHT22;10132;50.864;5.176;2022-08-27T09:35:44;20.60;99.90
19941;DHT22;10132;50.864;5.176;2022-08-27T09:37:51;20.80;99.90
19941;DHT22;10132;50.864;5.176;2022-08-27T09:39:58;20.80;99.90
19941;DHT22;10132;50.864;5.176;2022-08-27T09:42:04;20.80;99.90
19941;DHT22;10132;50.864;5.176;2022-08-27T09:44:09;20.70;99.90
19941;DHT22;10132;50.864;5.176;2022-08-27T09:46:18;20.80;99.90
19941;DHT22;10132;50.864;5.176;2022-08-27T09:48:24;20.90;99.90
19941;DHT22;10132;50.864;5.176;2022-08-27T09:50:34;20.70;99.90
19941;DHT22;10132;50.864;5.176;2022-08-27T09:52:44;20.90;99.90
19941;DHT22;10132;50.864;5.176;2022-08-27T09:54:49;21.10;99.90
19941;DHT22;10132;50.864;5.176;2022-08-27T09:56:55;21.10;99.90
19941;DHT22;10132;50.864;5.176;2022-08-27T09:59:02;21.40;99.90
19941;DHT22;10132;50.864;5.176;2022-08-27T10:01:14;21.30;99.90
19941;DHT22;10132;50.864;5.176;2022-08-27T10:03:20;21.20;99.90
19941;DHT22;10132;50.864;5.176;2022-08-27T10:05:27;21.30;99.90
19941;DHT22;10132;50.864;5.176;2022-08-27T10:07:37;21.90;99.90
19941;DHT22;10132;50.864;5.176;2022-08-27T10:09:46;22.70;99.90
19941;DHT22;10132;50.864;5.176;2022-08-27T10:11:57;23.40;99.90
19941;DHT22;10132;50.864;5.176;2022-08-27T10:14:03;23.90;99.90
19941;DHT22;10132;50.864;5.176;2022-08-27T10:16:44;24.30;99.90
19941;DHT22;10132;50.864;5.176;2022-08-27T10:18:58;24.30;99.90
19941;DHT22;10132;50.864;5.176;2022-08-27T10:21:10;24.00;99.90
19941;DHT22;10132;50.864;5.176;2022-08-27T10:23:19;24.20;99.90
19941;DHT22;10132;50.864;5.176;2022-08-27T10:25:30;24.10;99.90
19941;DHT22;10132;50.864;5.176;2022-08-27T10:27:45;24.00;99.90
19941;DHT22;10132;50.864;5.176;2022-08-27T10:29:55;24.10;99.90
19941;DHT22;10132;50.864;5.176;2022-08-27T10:32:09;24.30;99.90
19941;DHT22;10132;50.864;5.176;2022-08-27T10:34:26;24.30;99.90
19941;DHT22;10132;50.864;5.176;2022-08-27T10:36:39;24.70;99.90
19941;DHT22;10132;50.864;5.176;2022-08-27T10:38:49;24.90;99.90
19941;DHT22;10132;50.864;5.176;2022-08-27T10:40:59;25.50;99.90
19941;DHT22;10132;50.864;5.176;2022-08-27T10:45:47;25.80;99.90
19941;DHT22;10132;50.864;5.176;2022-08-27T10:48:04;25.50;99.90
19941;DHT22;10132;50.864;5.176;2022-08-27T10:50:09;25.50;99.90
19941;DHT22;10132;50.864;5.176;2022-08-27T10:52:21;24.90;99.90
19941;DHT22;10132;50.864;5.176;2022-08-27T10:54:30;24.20;99.90
19941;DHT22;10132;50.864;5.176;2022-08-27T10:56:37;23.70;99.90
19941;DHT22;10132;50.864;5.176;2022-08-27T10:58:52;23.10;99.90
19941;DHT22;10132;50.864;5.176;2022-08-27T11:01:04;23.00;99.90
19941;DHT22;10132;50.864;5.176;2022-08-27T11:03:10;22.90;99.90
19941;DHT22;10132;50.864;5.176;2022-08-27T11:05:17;22.90;99.90
19941;DHT22;10132;50.864;5.176;2022-08-27T11:07:24;22.90;99.90
19941;DHT22;10132;50.864;5.176;2022-08-27T11:09:34;22.90;99.90
19941;DHT22;10132;50.864;5.176;2022-08-27T11:11:40;22.90;99.90
19941;DHT22;10132;50.864;5.176;2022-08-27T11:13:47;22.90;99.90
19941;DHT22;10132;50.864;5.176;2022-08-27T11:15:52;23.10;99.90
19941;DHT22;10132;50.864;5.176;2022-08-27T11:18:01;23.20;99.90
19941;DHT22;10132;50.864;5.176;2022-08-27T11:20:09;23.10;99.90
19941;DHT22;10132;50.864;5.176;2022-08-27T11:22:15;23.40;99.90
19941;DHT22;10132;50.864;5.176;2022-08-27T11:24:24;24.10;99.90
19941;DHT22;10132;50.864;5.176;2022-08-27T11:26:31;23.50;99.90
19941;DHT22;10132;50.864;5.176;2022-08-27T11:28:36;23.50;99.90
19941;DHT22;10132;50.864;5.176;2022-08-27T11:30:51;24.30;99.90
19941;DHT22;10132;50.864;5.176;2022-08-27T11:33:02;24.40;99.90
19941;DHT22;10132;50.864;5.176;2022-08-27T11:35:10;24.20;99.90
19941;DHT22;10132;50.864;5.176;2022-08-27T11:37:31;24.10;99.90
19941;DHT22;10132;50.864;5.176;2022-08-27T11:39:48;23.60;99.90
19941;DHT22;10132;50.864;5.176;2022-08-27T11:42:03;23.40;99.90
19941;DHT22;10132;50.864;5.176;2022-08-27T11:44:08;23.50;99.90
19941;DHT22;10132;50.864;5.176;2022-08-27T11:46:21;23.30;99.90
19941;DHT22;10132;50.864;5.176;2022-08-27T11:48:25;23.30;99.90
19941;DHT22;10132;50.864;5.176;2022-08-27T11:50:29;23.30;99.90
19941;DHT22;10132;50.864;5.176;2022-08-27T11:52:34;23.50;99.90
19941;DHT22;10132;50.864;5.176;2022-08-27T11:54:45;23.70;99.90
19941;DHT22;10132;50.864;5.176;2022-08-27T11:56:46;23.90;99.90
19941;DHT22;10132;50.864;5.176;2022-08-27T11:58:48;23.90;99.90
19941;DHT22;10132;50.864;5.176;2022-08-27T12:00:51;24.00;99.90
19941;DHT22;10132;50.864;5.176;2022-08-27T12:02:59;24.10;99.90
19941;DHT22;10132;50.864;5.176;2022-08-27T12:05:19;24.00;99.90
19941;DHT22;10132;50.864;5.176;2022-08-27T12:07:26;23.80;99.90
19941;DHT22;10132;50.864;5.176;2022-08-27T12:09:43;23.80;99.90
19941;DHT22;10132;50.864;5.176;2022-08-27T12:11:57;23.70;99.90
19941;DHT22;10132;50.864;5.176;2022-08-27T12:14:11;23.70;99.90
19941;DHT22;10132;50.864;5.176;2022-08-27T12:16:24;23.30;99.90
19941;DHT22;10132;50.864;5.176;2022-08-27T12:18:47;23.30;99.90
19941;DHT22;10132;50.864;5.176;2022-08-27T12:20:55;23.30;99.90
19941;DHT22;10132;50.864;5.176;2022-08-27T12:23:10;23.60;99.90
19941;DHT22;10132;50.864;5.176;2022-08-27T12:25:33;23.60;99.90
19941;DHT22;10132;50.864;5.176;2022-08-27T12:27:35;23.50;99.90
19941;DHT22;10132;50.864;5.176;2022-08-27T12:29:40;23.50;99.90
19941;DHT22;10132;50.864;5.176;2022-08-27T12:31:44;23.60;99.90
19941;DHT22;10132;50.864;5.176;2022-08-27T12:33:50;23.60;99.90
19941;DHT22;10132;50.864;5.176;2022-08-27T12:35:56;23.30;99.90
19941;DHT22;10132;50.864;5.176;2022-08-27T12:38:10;23.50;99.90
19941;DHT22;10132;50.864;5.176;2022-08-27T12:40:20;23.70;99.90
19941;DHT22;10132;50.864;5.176;2022-08-27T12:42:22;23.90;99.90
19941;DHT22;10132;50.864;5.176;2022-08-27T12:44:26;24.00;99.90
19941;DHT22;10132;50.864;5.176;2022-08-27T12:46:29;24.20;99.90
19941;DHT22;10132;50.864;5.176;2022-08-27T12:48:33;24.10;99.90
19941;DHT22;10132;50.864;5.176;2022-08-27T12:50:38;24.30;99.90
19941;DHT22;10132;50.864;5.176;2022-08-27T12:52:57;24.40;99.90
19941;DHT22;10132;50.864;5.176;2022-08-27T12:55:12;24.10;99.90
19941;DHT22;10132;50.864;5.176;2022-08-27T12:57:23;24.10;99.90
19941;DHT22;10132;50.864;5.176;2022-08-27T13:02:07;24.50;99.90
19941;DHT22;10132;50.864;5.176;2022-08-27T13:04:20;24.50;99.90
19941;DHT22;10132;50.864;5.176;2022-08-27T13:06:30;24.80;99.90
19941;DHT22;10132;50.864;5.176;2022-08-27T13:08:34;24.80;99.90
19941;DHT22;10132;50.864;5.176;2022-08-27T13:10:37;24.80;99.90
19941;DHT22;10132;50.864;5.176;2022-08-27T13:12:39;24.80;99.90
19941;DHT22;10132;50.864;5.176;2022-08-27T13:14:42;25.00;99.90